Time;durP1;ratioP1;P1;durP2;ratioP2;P2;SDS_P1;SDS_P2;PMS_P1;PMS_P2;Temp;Humidity;BMP_temperature;BMP_pressure;BME280_temperature;BME280_humidity;BME280_pressure;Samples;Min_cycle;Max_cycle;Signal;HPM_P1;HPM_P2
2022/10/27 00:00:34;;;;;;;1999.90;999.90;;;14.50;99.90;;;;;;6732614;88;20185;-77
2022/10/27 00:10:35;;;;;;;1999.90;999.90;;;14.50;99.90;;;;;;6702920;88;20178;-77
2022/10/27 00:20:36;;;;;;;1999.90;999.90;;;14.40;99.90;;;;;;6665063;88;20244;-77
2022/10/27 00:30:37;;;;;;;1999.90;999.90;;;14.30;99.90;;;;;;6705707;88;20230;-77
2022/10/27 00:40:38;;;;;;;1999.90;999.90;;;14.10;99.90;;;;;;6700241;88;20698;-77
2022/10/27 00:50:38;;;;;;;1999.90;999.90;;;13.70;99.90;;;;;;6724649;88;20209;-77
2022/10/27 01:00:40;;;;;;;1999.90;999.90;;;13.50;99.90;;;;;;6742963;88;20203;-77
2022/10/27 01:10:40;;;;;;;1999.90;999.90;;;13.50;99.90;;;;;;6705926;88;20394;-77
2022/10/27 01:21:06;;;;;;;1999.90;999.90;;;13.30;99.90;;;;;;6710571;88;20291;-77
2022/10/27 01:31:18;;;;;;;1999.90;999.90;;;13.20;99.90;;;;;;6697997;88;20239;-78
2022/10/27 01:41:27;;;;;;;1999.90;999.90;;;12.90;99.90;;;;;;6671692;88;20653;-77
2022/10/27 01:51:27;;;;;;;1999.90;999.90;;;13.00;99.90;;;;;;6691995;88;20251;-77
2022/10/27 02:01:52;;;;;;;1999.90;999.90;;;13.10;99.90;;;;;;6720690;88;20211;-77
2022/10/27 02:11:54;;;;;;;1999.90;999.90;;;13.20;99.90;;;;;;6711663;87;20212;-77
2022/10/27 02:21:58;;;;;;;1999.90;999.90;;;13.30;99.90;;;;;;6712826;88;20189;-77
2022/10/27 02:32:02;;;;;;;1999.90;999.90;;;13.30;99.90;;;;;;6707033;88;20317;-77
2022/10/27 02:42:04;;;;;;;1999.90;999.90;;;13.30;99.90;;;;;;6702751;88;20196;-77
2022/10/27 02:52:05;;;;;;;1999.90;999.90;;;13.20;99.90;;;;;;6717557;88;20199;-77
2022/10/27 03:02:05;;;;;;;1999.90;999.90;;;13.20;99.90;;;;;;6701498;88;20766;-77
2022/10/27 03:12:06;;;;;;;1999.90;999.90;;;13.00;99.90;;;;;;6733148;88;20185;-77
2022/10/27 03:22:06;;;;;;;1999.90;999.90;;;12.70;99.90;;;;;;6728273;88;20210;-77
2022/10/27 03:32:07;;;;;;;1999.90;999.90;;;12.60;99.90;;;;;;6704134;88;20196;-77
2022/10/27 03:42:07;;;;;;;1999.90;999.90;;;12.50;99.90;;;;;;6694662;88;20182;-77
2022/10/27 03:52:08;;;;;;;1999.90;999.90;;;12.50;99.90;;;;;;6723125;88;20305;-77
2022/10/27 04:02:09;;;;;;;1999.90;999.90;;;12.20;99.90;;;;;;6663361;88;20383;-77
2022/10/27 04:12:09;;;;;;;1999.90;999.90;;;12.10;99.90;;;;;;6706363;88;20238;-77
2022/10/27 04:22:10;;;;;;;1999.90;999.90;;;12.30;99.90;;;;;;6704948;88;20213;-77
2022/10/27 04:32:10;;;;;;;1999.90;999.90;;;12.30;99.90;;;;;;6720571;88;20648;-77
2022/10/27 04:42:11;;;;;;;1999.90;999.90;;;12.40;99.90;;;;;;6707020;88;20205;-77
2022/10/27 04:52:11;;;;;;;1999.90;999.90;;;12.50;99.90;;;;;;6701735;88;20201;-77
2022/10/27 05:02:12;;;;;;;1999.90;999.90;;;12.40;99.90;;;;;;6698343;88;20185;-78
2022/10/27 05:12:12;;;;;;;1999.90;999.90;;;12.40;99.90;;;;;;6699933;88;20214;-78
2022/10/27 05:22:13;;;;;;;1999.90;999.90;;;12.50;99.90;;;;;;6747711;88;20182;-78
2022/10/27 05:32:13;;;;;;;1999.90;999.90;;;12.50;99.90;;;;;;6743395;88;20239;-78
2022/10/27 05:42:14;;;;;;;1999.90;999.90;;;12.60;99.90;;;;;;6743905;88;20181;-78
2022/10/27 05:52:14;;;;;;;1999.90;999.90;;;12.70;99.90;;;;;;6688219;88;20939;-78
2022/10/27 06:02:15;;;;;;;1999.90;999.90;;;13.00;99.90;;;;;;6744647;88;20239;-78
2022/10/27 06:12:16;;;;;;;1999.90;999.90;;;13.30;99.90;;;;;;6743035;88;20205;-78
2022/10/27 06:22:17;;;;;;;1999.90;999.90;;;13.40;99.90;;;;;;6693699;88;20268;-78
2022/10/27 06:32:17;;;;;;;1999.90;999.90;;;13.30;99.90;;;;;;6722716;88;20647;-79
2022/10/27 06:42:18;;;;;;;1999.90;999.90;;;13.30;99.90;;;;;;6727714;88;20696;-78
2022/10/27 06:52:18;;;;;;;1999.90;999.90;;;13.30;99.90;;;;;;6737217;88;20211;-79
2022/10/27 07:02:19;;;;;;;1999.90;999.90;;;13.30;99.90;;;;;;6715055;88;20222;-78
2022/10/27 07:12:19;;;;;;;1999.90;999.90;;;13.30;99.90;;;;;;6702321;88;20227;-79
2022/10/27 07:22:20;;;;;;;1999.90;999.90;;;13.30;99.90;;;;;;6738088;88;20209;-79
2022/10/27 07:32:22;;;;;;;1999.90;999.90;;;13.60;99.90;;;;;;6714479;88;20194;-79
2022/10/27 07:42:22;;;;;;;1999.90;999.90;;;14.00;99.90;;;;;;6685630;88;20280;-78
2022/10/27 07:52:23;;;;;;;1999.90;999.90;;;14.30;99.90;;;;;;6685100;88;20283;-78
2022/10/27 08:02:23;;;;;;;1999.90;999.90;;;15.10;99.90;;;;;;6730535;88;20579;-78
2022/10/27 08:12:24;;;;;;;1999.90;999.90;;;15.60;99.90;;;;;;6693133;88;20185;-77
2022/10/27 08:22:24;;;;;;;1999.90;999.90;;;15.90;99.90;;;;;;6666992;88;20308;-78
2022/10/27 08:32:25;;;;;;;1999.90;999.90;;;16.20;99.90;;;;;;6675513;88;21099;-78
2022/10/27 08:42:34;;;;;;;1999.90;999.90;;;16.70;99.90;;;;;;6682851;88;20666;-79
2022/10/27 08:52:39;;;;;;;1999.90;999.90;;;17.30;99.90;;;;;;6718600;88;20704;-78
2022/10/27 09:02:48;;;;;;;;;;;17.50;99.90;;;;;;6737973;88;20305;-78
2022/10/27 09:13:06;;;;;;;1999.90;999.90;;;17.50;99.90;;;;;;6737862;88;20496;-79
2022/10/27 09:23:13;;;;;;;1999.90;999.90;;;17.90;99.90;;;;;;6700232;88;20180;-79
2022/10/27 09:33:20;;;;;;;1999.90;999.90;;;18.30;99.90;;;;;;6742694;88;20267;-78
2022/10/27 09:43:22;;;;;;;1999.90;999.90;;;18.60;99.90;;;;;;6722347;88;20223;-78
2022/10/27 09:53:36;;;;;;;1999.90;999.90;;;18.80;99.90;;;;;;6728591;88;20193;-78
2022/10/27 10:03:38;;;;;;;1999.90;999.90;;;18.80;99.90;;;;;;6732961;88;20202;-79
2022/10/27 10:13:40;;;;;;;1999.90;999.90;;;19.10;99.90;;;;;;6735000;88;20207;-79
2022/10/27 10:23:52;;;;;;;1999.90;999.90;;;19.30;99.90;;;;;;6739005;88;20232;-79
2022/10/27 10:34:01;;;;;;;1999.90;999.90;;;19.20;99.90;;;;;;6703158;88;20268;-80
2022/10/27 10:44:12;;;;;;;1999.90;999.90;;;19.70;99.90;;;;;;6674461;88;20196;-79
2022/10/27 10:54:22;;;;;;;1999.90;999.90;;;19.90;99.90;;;;;;6727747;88;20226;-77
2022/10/27 11:04:27;;;;;;;1999.90;999.90;;;20.10;99.90;;;;;;6732642;88;20218;-77
2022/10/27 11:14:28;;;;;;;1999.90;999.90;;;20.50;99.90;;;;;;6720744;77;20240;-78
2022/10/27 11:24:33;;;;;;;1999.90;999.90;;;20.40;99.90;;;;;;6711501;88;20256;-78
2022/10/27 11:35:03;;;;;;;1999.90;999.90;;;20.50;99.90;;;;;;6718342;88;20226;-77
2022/10/27 11:45:22;;;;;;;1999.90;999.90;;;20.70;99.90;;;;;;6700581;88;20323;-78
2022/10/27 11:55:29;;;;;;;1999.90;999.90;;;21.40;99.90;;;;;;6703521;88;20190;-77
2022/10/27 12:05:50;;;;;;;1999.90;999.90;;;22.20;99.90;;;;;;6703183;88;20589;-78
2022/10/27 12:16:10;;;;;;;1999.90;999.90;;;21.30;99.90;;;;;;6698298;88;20209;-78
2022/10/27 12:26:19;;;;;;;1999.90;999.90;;;21.50;99.90;;;;;;6709353;88;20209;-78
2022/10/27 12:36:26;;;;;;;1999.90;999.90;;;21.50;99.90;;;;;;6713829;88;20230;-78
2022/10/27 12:46:34;;;;;;;1999.90;999.90;;;22.10;99.90;;;;;;6702697;88;20805;-78
2022/10/27 12:56:45;;;;;;;1999.90;999.90;;;22.80;99.90;;;;;;6699784;88;20366;-78
2022/10/27 13:07:27;;;;;;;1999.90;999.90;;;23.50;99.90;;;;;;6707502;88;20236;-77
2022/10/27 13:17:48;;;;;;;1999.90;999.90;;;23.00;99.90;;;;;;6719157;88;20360;-78
2022/10/27 13:28:02;;;;;;;1999.90;999.90;;;23.40;99.90;;;;;;6705338;88;20269;-78
2022/10/27 13:38:21;;;;;;;1999.90;999.90;;;23.20;99.90;;;;;;6690677;88;20207;-77
2022/10/27 13:48:21;;;;;;;1999.90;999.90;;;22.60;99.90;;;;;;6705284;88;20205;-79
2022/10/27 13:59:08;;;;;;;1999.90;999.90;;;22.10;99.90;;;;;;6704407;88;20220;-78
2022/10/27 14:09:18;;;;;;;1999.90;999.90;;;22.00;99.90;;;;;;6708133;88;20421;-77
2022/10/27 14:19:31;;;;;;;1999.90;999.90;;;21.90;99.90;;;;;;6710593;88;20238;-78
2022/10/27 14:29:32;;;;;;;1999.90;999.90;;;21.60;99.90;;;;;;6715070;88;20186;-78
2022/10/27 14:39:35;;;;;;;1999.90;999.90;;;21.30;99.90;;;;;;6695772;88;20206;-78
2022/10/27 14:49:42;;;;;;;1999.90;999.90;;;21.10;99.90;;;;;;6708847;88;20199;-78
2022/10/27 14:59:45;;;;;;;1999.90;999.90;;;20.90;99.90;;;;;;6702288;88;20268;-77
2022/10/27 15:09:49;;;;;;;1999.90;999.90;;;20.80;99.90;;;;;;6704055;88;20191;-78
2022/10/27 15:19:55;;;;;;;1999.90;999.90;;;20.70;99.90;;;;;;6718684;88;20260;-78
2022/10/27 15:29:55;;;;;;;1999.90;999.90;;;20.70;99.90;;;;;;6704504;88;20211;-77
2022/10/27 15:40:20;;;;;;;1999.90;999.90;;;20.70;99.90;;;;;;6707967;88;20195;-79
2022/10/27 15:50:30;;;;;;;1999.90;999.90;;;20.70;99.90;;;;;;6717289;88;20178;-78
2022/10/27 16:00:30;;;;;;;1999.90;999.90;;;20.70;99.90;;;;;;6706675;88;20650;-77
2022/10/27 16:10:31;;;;;;;1999.90;999.90;;;20.80;99.90;;;;;;6710006;88;20241;-78
2022/10/27 16:20:37;;;;;;;1999.90;999.90;;;20.70;99.90;;;;;;6703033;88;20190;-78
2022/10/27 16:30:40;;;;;;;1999.90;999.90;;;20.70;99.90;;;;;;6718721;88;20675;-78
2022/10/27 16:40:42;;;;;;;1999.90;999.90;;;20.80;99.90;;;;;;6715797;88;20263;-83
2022/10/27 16:50:44;;;;;;;1999.90;999.90;;;20.70;99.90;;;;;;6723894;88;20163;-79
2022/10/27 17:00:44;;;;;;;1999.90;999.90;;;20.60;99.90;;;;;;6707067;88;20182;-78
2022/10/27 17:11:26;;;;;;;1999.90;999.90;;;20.50;99.90;;;;;;6728047;77;20168;-80
2022/10/27 17:21:27;;;;;;;1999.90;999.90;;;20.30;99.90;;;;;;6765320;88;20256;-80
2022/10/27 17:31:27;;;;;;;1999.90;999.90;;;20.10;99.90;;;;;;6760171;88;20191;-78
2022/10/27 17:41:28;;;;;;;1999.90;999.90;;;19.90;99.90;;;;;;6745906;88;20205;-79
2022/10/27 17:51:30;;;;;;;1999.90;999.90;;;19.20;99.90;;;;;;6736423;88;20214;-79
2022/10/27 18:01:32;;;;;;;1999.90;999.90;;;19.00;99.90;;;;;;6741077;88;20206;-79
2022/10/27 18:11:35;;;;;;;1999.90;999.90;;;19.00;99.90;;;;;;6721295;88;20702;-79
2022/10/27 18:21:43;;;;;;;1999.90;999.90;;;18.90;99.90;;;;;;6721876;88;20264;-78
2022/10/27 18:31:44;;;;;;;1999.90;999.90;;;18.90;99.90;;;;;;6736607;88;20214;-78
2022/10/27 18:41:47;;;;;;;1999.90;999.90;;;18.80;99.90;;;;;;6737433;88;20196;-78
2022/10/27 18:51:48;;;;;;;1999.90;999.90;;;18.80;99.90;;;;;;6732727;88;20239;-77
2022/10/27 19:01:51;;;;;;;1999.90;999.90;;;18.70;99.90;;;;;;6733347;88;20235;-77
2022/10/27 19:11:52;;;;;;;1999.90;999.90;;;18.60;99.90;;;;;;6733441;88;20344;-78
2022/10/27 19:21:52;;;;;;;1999.90;999.90;;;18.60;99.90;;;;;;6724306;88;20189;-80
2022/10/27 19:31:53;;;;;;;1999.90;999.90;;;18.60;99.90;;;;;;6725698;88;20495;-80
2022/10/27 19:41:56;;;;;;;1999.90;999.90;;;18.70;99.90;;;;;;6725082;88;20957;-80
2022/10/27 19:51:56;;;;;;;1999.90;999.90;;;18.50;99.90;;;;;;6732523;88;20305;-78
2022/10/27 20:01:57;;;;;;;1999.90;999.90;;;18.50;99.90;;;;;;6719518;88;20201;-78
2022/10/27 20:11:58;;;;;;;1999.90;999.90;;;18.50;99.90;;;;;;6718044;88;20475;-79
2022/10/27 20:22:01;;;;;;;1999.90;999.90;;;18.30;99.90;;;;;;6727496;88;20681;-79
2022/10/27 20:32:02;;;;;;;1999.90;999.90;;;18.40;99.90;;;;;;6737418;88;20486;-80
2022/10/27 20:42:03;;;;;;;1999.90;999.90;;;18.30;99.90;;;;;;6732313;88;20308;-80
2022/10/27 20:52:03;;;;;;;1999.90;999.90;;;18.30;99.90;;;;;;6731407;88;20691;-79
2022/10/27 21:02:04;;;;;;;1999.90;999.90;;;18.20;99.90;;;;;;6769232;88;20524;-81
2022/10/27 21:12:05;;;;;;;1999.90;999.90;;;18.20;99.90;;;;;;6780874;87;20210;-77
2022/10/27 21:22:05;;;;;;;1999.90;999.90;;;18.20;99.90;;;;;;6773932;87;20187;-81
2022/10/27 21:32:06;;;;;;;1999.90;999.90;;;18.10;99.90;;;;;;6765115;88;20240;-81
2022/10/27 21:42:06;;;;;;;1999.90;999.90;;;18.10;99.90;;;;;;6760907;88;20213;-78
2022/10/27 21:52:07;;;;;;;1999.90;999.90;;;18.30;99.90;;;;;;6758341;88;20179;-80
2022/10/27 22:02:07;;;;;;;1999.90;999.90;;;18.30;99.90;;;;;;6755928;88;20210;-78
2022/10/27 22:12:08;;;;;;;1999.90;999.90;;;18.40;99.90;;;;;;6755362;88;20266;-79
2022/10/27 22:22:09;;;;;;;1999.90;999.90;;;18.40;99.90;;;;;;6755841;88;20213;-78
2022/10/27 22:32:09;;;;;;;1999.90;999.90;;;18.40;99.90;;;;;;6753887;88;20224;-78
2022/10/27 22:42:09;;;;;;;1999.90;999.90;;;18.50;99.90;;;;;;6756832;88;21058;-78
2022/10/27 22:52:10;;;;;;;1999.90;999.90;;;18.50;99.90;;;;;;6755327;88;20195;-79
2022/10/27 23:02:11;;;;;;;1999.90;999.90;;;18.50;99.90;;;;;;6747626;88;20213;-78
2022/10/27 23:12:32;;;;;;;1999.90;999.90;;;18.50;99.90;;;;;;6749695;77;20184;-79
2022/10/27 23:22:33;;;;;;;1999.90;999.90;;;18.40;99.90;;;;;;6752711;87;20353;-79
2022/10/27 23:32:33;;;;;;;1999.90;999.90;;;18.30;99.90;;;;;;6746967;88;20307;-79
2022/10/27 23:42:34;;;;;;;1999.90;999.90;;;18.40;99.90;;;;;;6745942;88;20182;-80
2022/10/27 23:52:34;;;;;;;1999.90;999.90;;;18.30;99.90;;;;;;6756146;88;20234;-79
